EPWR/WRO METAR and TAF weather

Enter ICAO airport designator
Station Type Date Time Source
EPWR METAR 2020/09/22 00:30 UTC NOAA

EPWR 220030Z 13006KT CAVOK 12/10 Q1016


Station Type Date Time Source
EPWR Decoded METAR 2020/09/22 00:30 UTC NOAA

Wroclaw Ii, Poland (EPWR) 51-06N 016-53E 121M
Sep 21, 2020 - 08:30 PM EDT / 2020.09.22 0030 UTC
Wind: from the SE (130 degrees) at 7 MPH (6 KT):0
Visibility: greater than 7 mile(s):0
Temperature: 53 F (12 C)
Dew Point: 50 F (10 C)
Relative Humidity: 87%
Pressure (altimeter): 30.00 in. Hg (1016 hPa)
ob: EPWR 220030Z 13006KT CAVOK 12/10 Q1016
cycle: 0

Station Type Date Time Source
EPWR TAF 2020/09/21 21:33 UTC NOAA

TAF EPWR 212030Z 2121/2221 14008KT CAVOK
TEMPO 2209/2215 18015G25KT

Example: see airport list